Time;durP1;ratioP1;P1;durP2;ratioP2;P2;SDS_P1;SDS_P2;PMS_P1;PMS_P2;Temp;Humidity;BMP_temperature;BMP_pressure;BME280_temperature;BME280_humidity;BME280_pressure;Samples;Min_cycle;Max_cycle;Signal;HPM_P1;HPM_P2
2023/02/28 00:00:54;;;;;;;;;;;;;;;-2.53;68.03;102482.91;105916;1291;60026;-78
2023/02/28 00:03:40;;;;;;;;;;;;;;;-2.57;67.93;102477.89;105996;1291;59769;-78
2023/02/28 00:06:27;;;;;;;;;;;;;;;-2.60;68.06;102485.30;105973;1291;73977;-78
2023/02/28 00:09:13;;;;;;;;;;;;;;;-2.64;68.13;102484.73;106020;1291;67351;-78
2023/02/28 00:11:59;;;;;;;;;;;;;;;-2.62;68.19;102484.88;106021;1293;71280;-78
2023/02/28 00:14:44;;;;;;;;;;;;;;;-2.63;68.08;102484.45;105982;1291;60121;-78
2023/02/28 00:17:30;;;;;;;;;;;;;;;-2.64;68.10;102486.55;106058;1291;60618;-78
2023/02/28 00:20:17;;;;;;;;;;;;;;;-2.66;68.09;102487.81;106040;1289;74137;-78
2023/02/28 00:23:03;;;;;;;;;;;;;;;-2.69;68.16;102490.68;106094;1290;67910;-78
2023/02/28 00:25:49;;;;;;;;;;;;;;;-2.73;68.04;102492.55;105889;1291;72310;-78
2023/02/28 00:28:36;;;;;;;;;;;;;;;-2.79;68.07;102492.84;105928;1291;59990;-78
2023/02/28 00:31:22;;;;;;;;;;;;;;;-2.82;68.10;102497.85;106025;1290;59804;-78
2023/02/28 00:34:08;;;;;;;;;;;;;;;-2.85;68.19;102496.77;105902;1290;76281;-78
2023/02/28 00:36:54;;;;;;;;;;;;;;;-2.86;68.16;102499.30;105915;1289;69167;-78
2023/02/28 00:39:40;;;;;;;;;;;;;;;-2.87;68.13;102496.15;106055;1288;72603;-78
2023/02/28 00:42:26;;;;;;;;;;;;;;;-2.87;68.19;102496.00;106089;1292;60191;-78
2023/02/28 00:45:12;;;;;;;;;;;;;;;-2.89;68.14;102494.35;106139;1291;60022;-78
2023/02/28 00:47:58;;;;;;;;;;;;;;;-2.89;68.16;102496.52;105990;1288;76039;-78
2023/02/28 00:50:44;;;;;;;;;;;;;;;-2.93;68.06;102494.59;106149;1288;68848;-78
2023/02/28 00:53:32;;;;;;;;;;;;;;;-2.96;68.14;102495.34;106144;1290;71963;-78
2023/02/28 00:56:18;;;;;;;;;;;;;;;-2.98;68.13;102494.23;106080;1291;61098;-78
2023/02/28 00:59:05;;;;;;;;;;;;;;;-3.00;68.11;102492.41;106061;1288;59906;-78
2023/02/28 01:01:51;;;;;;;;;;;;;;;-3.02;68.15;102493.94;106034;1288;75173;-78
2023/02/28 01:04:36;;;;;;;;;;;;;;;-3.03;68.22;102492.70;105995;1288;69232;-78
2023/02/28 01:07:23;;;;;;;;;;;;;;;-3.02;68.24;102491.23;106027;1288;71431;-78
2023/02/28 01:10:09;;;;;;;;;;;;;;;-3.03;68.21;102489.84;106011;1288;59964;-78
2023/02/28 01:12:55;;;;;;;;;;;;;;;-3.07;68.25;102483.31;106067;1288;59957;-79
2023/02/28 01:15:44;;;;;;;;;;;;;;;-3.10;68.18;102488.86;106103;1292;74844;-78
2023/02/28 01:18:31;;;;;;;;;;;;;;;-3.11;68.16;102485.55;106001;1288;67065;-78
2023/02/28 01:21:18;;;;;;;;;;;;;;;-3.12;68.22;102482.11;106098;1288;70542;-78
2023/02/28 01:24:05;;;;;;;;;;;;;;;-3.17;68.15;102481.95;106062;1292;60068;-78
2023/02/28 01:26:51;;;;;;;;;;;;;;;-3.18;68.29;102477.35;105916;1293;60399;-79
2023/02/28 01:29:37;;;;;;;;;;;;;;;-3.16;68.29;102476.64;106063;1289;74214;-79
2023/02/28 01:32:23;;;;;;;;;;;;;;;-3.17;68.28;102474.88;105927;1292;68604;-79
2023/02/28 01:35:09;;;;;;;;;;;;;;;-3.20;68.12;102474.48;105811;1295;73393;-79
2023/02/28 01:37:55;;;;;;;;;;;;;;;-3.23;68.22;102469.42;106046;1291;60672;-79
2023/02/28 01:40:41;;;;;;;;;;;;;;;-3.26;68.25;102470.23;105901;1289;60915;-80
2023/02/28 01:43:31;;;;;;;;;;;;;;;-3.30;68.26;102469.92;106019;1288;75392;-79
2023/02/28 01:46:17;;;;;;;;;;;;;;;-3.33;68.26;102467.36;105922;1288;67243;-79
2023/02/28 01:49:12;;;;;;;;;;;;;;;-3.31;68.27;102471.02;105956;1289;72542;-79
2023/02/28 01:51:58;;;;;;;;;;;;;;;-3.35;68.18;102473.31;105800;1296;60011;-79
2023/02/28 01:54:53;;;;;;;;;;;;;;;-3.38;68.25;102473.77;105954;1291;60072;-79
2023/02/28 01:57:45;;;;;;;;;;;;;;;-3.40;68.30;102477.52;105827;1291;75383;-79
2023/02/28 02:00:32;;;;;;;;;;;;;;;-3.40;68.34;102479.85;105896;1294;67201;-79
2023/02/28 02:03:19;;;;;;;;;;;;;;;-3.45;68.22;102476.63;105861;1289;71706;-79
2023/02/28 02:06:05;;;;;;;;;;;;;;;-3.48;68.28;102482.11;105832;1294;59759;-79
2023/02/28 02:08:52;;;;;;;;;;;;;;;-3.51;68.19;102480.11;105851;1293;59823;-79
2023/02/28 02:11:40;;;;;;;;;;;;;;;-3.51;68.26;102479.91;105811;1290;75115;-78
2023/02/28 02:14:58;;;;;;;;;;;;;;;-3.50;68.29;102478.42;105956;1295;68145;-78
2023/02/28 02:17:45;;;;;;;;;;;;;;;-3.52;68.27;102480.31;105519;1296;72864;-79
2023/02/28 02:20:34;;;;;;;;;;;;;;;-3.52;68.36;102474.96;105581;1296;60372;-79
2023/02/28 02:23:46;;;;;;;;;;;;;;;-3.55;68.34;102475.77;105570;1297;60464;-79
2023/02/28 02:26:51;;;;;;;;;;;;;;;-3.56;68.36;102478.56;105137;1302;75370;-79
2023/02/28 02:29:37;;;;;;;;;;;;;;;-3.57;68.29;102477.80;105098;1300;68084;-79
2023/02/28 02:32:41;;;;;;;;;;;;;;;-3.58;68.31;102478.91;105054;1303;71328;-79
2023/02/28 02:35:31;;;;;;;;;;;;;;;-3.58;68.34;102477.57;105085;1300;59855;-79
2023/02/28 02:38:43;;;;;;;;;;;;;;;-3.62;68.29;102476.61;105139;1301;59880;-80
2023/02/28 02:41:39;;;;;;;;;;;;;;;-3.64;68.33;102473.07;105087;1300;74882;-79
2023/02/28 02:44:44;;;;;;;;;;;;;;;-3.70;68.26;102477.95;105106;1301;68833;-79
2023/02/28 02:47:31;;;;;;;;;;;;;;;-3.72;68.26;102473.59;105084;1305;72573;-79
2023/02/28 02:50:22;;;;;;;;;;;;;;;-3.72;68.33;102475.92;105042;1300;60199;-79
2023/02/28 02:53:09;;;;;;;;;;;;;;;-3.74;68.31;102474.76;105008;1296;284467;-79
2023/02/28 02:55:55;;;;;;;;;;;;;;;-3.77;68.34;102474.55;105471;1299;74108;-79
2023/02/28 02:58:43;;;;;;;;;;;;;;;-3.79;68.29;102467.48;105359;1299;68687;-79
2023/02/28 03:01:31;;;;;;;;;;;;;;;-3.82;68.38;102468.60;105293;1301;72287;-79
2023/02/28 03:04:18;;;;;;;;;;;;;;;-3.85;68.41;102468.25;105742;1295;59848;-79
2023/02/28 03:07:04;;;;;;;;;;;;;;;-3.86;68.38;102467.96;101896;1291;5165535;-79
2023/02/28 03:09:55;;;;;;;;;;;;;;;-3.88;68.31;102469.85;105947;1289;74216;-78
2023/02/28 03:12:50;;;;;;;;;;;;;;;-3.94;68.37;102474.52;105940;1292;68629;-78
2023/02/28 03:15:44;;;;;;;;;;;;;;;-3.97;68.33;102475.79;106034;1288;73585;-78
2023/02/28 03:18:50;;;;;;;;;;;;;;;-4.02;68.33;102474.91;106052;1292;59947;-78
2023/02/28 03:21:39;;;;;;;;;;;;;;;-4.04;68.38;102474.63;105935;1292;60124;-78
2023/02/28 03:24:54;;;;;;;;;;;;;;;-4.05;68.36;102476.21;106102;1289;74003;-79
2023/02/28 03:27:55;;;;;;;;;;;;;;;-4.11;68.29;102478.47;106051;1292;68518;-79
2023/02/28 03:30:44;;;;;;;;;;;;;;;-4.14;68.40;102475.39;106044;1289;72810;-78
2023/02/28 03:33:32;;;;;;;;;;;;;;;-4.13;68.54;102477.47;105922;1288;60018;-79
2023/02/28 03:36:20;;;;;;;;;;;;;;;-4.11;68.43;102473.11;105913;1291;59839;-79
2023/02/28 03:39:07;;;;;;;;;;;;;;;-4.10;68.48;102472.98;105944;1288;75668;-79
2023/02/28 03:41:59;;;;;;;;;;;;;;;-4.12;68.32;102478.88;105906;1290;67660;-79
2023/02/28 03:44:48;;;;;;;;;;;;;;;-4.13;68.42;102481.14;106015;1289;73023;-78
2023/02/28 03:47:43;;;;;;;;;;;;;;;-4.15;68.38;102480.71;105911;1290;59899;-78
2023/02/28 03:50:34;;;;;;;;;;;;;;;-4.20;68.41;102481.34;105274;1292;62273;-78
2023/02/28 03:53:35;;;;;;;;;;;;;;;-4.24;68.41;102483.23;105214;1288;74647;-78
2023/02/28 03:56:32;;;;;;;;;;;;;;;-4.23;68.52;102485.71;105175;1290;70007;-78
2023/02/28 03:59:34;;;;;;;;;;;;;;;-4.23;68.44;102482.98;105240;1291;70999;-78
2023/02/28 04:02:20;;;;;;;;;;;;;;;-4.24;68.51;102485.95;105189;1288;62047;-78
2023/02/28 04:05:07;;;;;;;;;;;;;;;-4.26;68.52;102484.96;105172;1288;59988;-78
2023/02/28 04:07:54;;;;;;;;;;;;;;;-4.30;68.55;102491.55;105047;1288;73956;-77
2023/02/28 04:10:41;;;;;;;;;;;;;;;-4.33;68.55;102494.41;105159;1288;68471;-77
2023/02/28 04:13:27;;;;;;;;;;;;;;;-4.32;68.53;102494.42;105126;1288;72386;-78
2023/02/28 04:16:13;;;;;;;;;;;;;;;-4.32;68.58;102491.90;105046;1288;60269;-77
2023/02/28 04:19:02;;;;;;;;;;;;;;;-4.33;68.54;102495.70;105125;1292;61859;-78
2023/02/28 04:21:50;;;;;;;;;;;;;;;-4.39;68.46;102498.30;104960;1292;74240;-78
2023/02/28 04:24:36;;;;;;;;;;;;;;;-4.43;68.55;102497.21;104974;1288;67369;-78
2023/02/28 04:27:23;;;;;;;;;;;;;;;-4.46;68.44;102497.79;105113;1288;72655;-78
2023/02/28 04:30:09;;;;;;;;;;;;;;;-4.48;68.47;102500.64;104981;1288;62073;-77
2023/02/28 04:32:55;;;;;;;;;;;;;;;-4.50;68.48;102502.54;105104;1292;60242;-78
2023/02/28 04:35:41;;;;;;;;;;;;;;;-4.50;68.49;102500.70;105044;1288;75205;-77
2023/02/28 04:38:28;;;;;;;;;;;;;;;-4.50;68.54;102504.08;105135;1288;67966;-78
2023/02/28 04:41:14;;;;;;;;;;;;;;;-4.54;68.49;102507.91;105107;1288;71169;-78
2023/02/28 04:44:00;;;;;;;;;;;;;;;-4.62;68.47;102509.06;105164;1289;60817;-79
2023/02/28 04:46:47;;;;;;;;;;;;;;;-4.66;68.48;102509.77;105001;1288;60449;-78
2023/02/28 04:49:33;;;;;;;;;;;;;;;-4.70;68.41;102510.86;105016;1289;74952;-78
2023/02/28 04:52:19;;;;;;;;;;;;;;;-4.71;68.54;102511.42;104946;1288;69203;-78
2023/02/28 04:55:05;;;;;;;;;;;;;;;-4.68;68.56;102519.88;105034;1288;71112;-78
2023/02/28 04:57:52;;;;;;;;;;;;;;;-4.69;68.57;102521.19;105040;1288;62065;-78
2023/02/28 05:00:38;;;;;;;;;;;;;;;-4.68;68.56;102527.30;105137;1288;59944;-79
2023/02/28 05:03:24;;;;;;;;;;;;;;;-4.70;68.44;102527.83;104947;1294;75021;-78
2023/02/28 05:06:12;;;;;;;;;;;;;;;-4.76;68.49;102529.05;105138;1288;67887;-78
2023/02/28 05:08:58;;;;;;;;;;;;;;;-4.78;68.48;102531.94;105155;1288;70397;-78
2023/02/28 05:11:44;;;;;;;;;;;;;;;-4.79;68.58;102536.33;104933;1290;61862;-77
2023/02/28 05:14:30;;;;;;;;;;;;;;;-4.80;68.53;102535.77;97986;1288;5003663;-79
2023/02/28 05:17:17;;;;;;;;;;;;;;;-4.80;68.59;102536.64;105037;1290;74316;-73
2023/02/28 05:20:04;;;;;;;;;;;;;;;-4.76;68.66;102537.63;104984;1288;68448;-74
2023/02/28 05:22:52;;;;;;;;;;;;;;;-4.75;68.58;102542.55;104998;1288;71414;-75
2023/02/28 05:25:38;;;;;;;;;;;;;;;-4.73;68.64;102544.04;105082;1292;61929;-74
2023/02/28 05:28:24;;;;;;;;;;;;;;;-4.72;68.63;102541.09;105048;1288;60485;-75
2023/02/28 05:31:11;;;;;;;;;;;;;;;-4.72;68.62;102535.71;105001;1291;75387;-75
2023/02/28 05:33:57;;;;;;;;;;;;;;;-4.72;68.59;102540.58;104757;1288;67426;-75
2023/02/28 05:36:43;;;;;;;;;;;;;;;-4.74;68.63;102541.65;105091;1288;71812;-75
2023/02/28 05:39:29;;;;;;;;;;;;;;;-4.74;68.65;102541.83;105150;1288;60312;-75
2023/02/28 05:42:15;;;;;;;;;;;;;;;-4.73;68.63;102543.21;105111;1288;61860;-75
2023/02/28 05:45:01;;;;;;;;;;;;;;;-4.70;68.68;102546.30;105152;1288;74765;-74
2023/02/28 05:47:47;;;;;;;;;;;;;;;-4.71;68.58;102551.75;105226;1289;67499;-74
2023/02/28 05:50:33;;;;;;;;;;;;;;;-4.76;68.60;102552.44;105104;1288;71324;-74
2023/02/28 05:53:19;;;;;;;;;;;;;;;-4.80;68.65;102550.44;105088;1290;62020;-74
2023/02/28 05:56:05;;;;;;;;;;;;;;;-4.82;68.61;102552.77;105139;1288;62999;-75
2023/02/28 05:58:51;;;;;;;;;;;;;;;-4.80;68.70;102555.98;105096;1292;75354;-75
2023/02/28 06:01:39;;;;;;;;;;;;;;;-4.75;68.77;102552.79;105089;1288;67566;-74
2023/02/28 06:04:25;;;;;;;;;;;;;;;-4.72;68.71;102551.05;105094;1288;71326;-74
2023/02/28 06:07:11;;;;;;;;;;;;;;;-4.67;68.73;102552.55;105070;1288;61875;-74
2023/02/28 06:09:57;;;;;;;;;;;;;;;-4.59;68.89;102553.98;105096;1288;60106;-74
2023/02/28 06:12:44;;;;;;;;;;;;;;;-4.46;68.99;102550.83;105195;1290;74081;-75
2023/02/28 06:15:30;;;;;;;;;;;;;;;-4.34;68.93;102549.67;105158;1290;67274;-75
2023/02/28 06:18:16;;;;;;;;;;;;;;;-4.23;68.83;102553.73;105124;1292;71508;-75
2023/02/28 06:21:02;;;;;;;;;;;;;;;-4.11;68.93;102557.63;105164;1288;60826;-75
2023/02/28 06:23:48;;;;;;;;;;;;;;;-4.02;68.78;102558.77;105236;1288;60165;-75
2023/02/28 06:26:35;;;;;;;;;;;;;;;-3.94;68.93;102560.90;105123;1292;74518;-75
2023/02/28 06:29:21;;;;;;;;;;;;;;;-3.85;68.98;102558.84;105219;1288;68066;-75
2023/02/28 06:32:07;;;;;;;;;;;;;;;-3.74;69.03;102559.21;105005;1289;72182;-75
2023/02/28 06:34:53;;;;;;;;;;;;;;;-3.57;69.16;102558.17;105103;1292;61869;-74
2023/02/28 06:37:39;;;;;;;;;;;;;;;-3.30;69.46;102559.14;105035;1289;62034;-74
2023/02/28 06:40:25;;;;;;;;;;;;;;;-2.90;69.48;102561.73;104972;1288;75271;-75
2023/02/28 06:43:14;;;;;;;;;;;;;;;-2.49;69.54;102559.70;104959;1288;69136;-75
2023/02/28 06:46:02;;;;;;;;;;;;;;;-1.96;69.54;102561.83;105055;1290;71509;-74
2023/02/28 06:48:48;;;;;;;;;;;;;;;-1.50;69.54;102560.64;105124;1288;62038;-74
2023/02/28 06:51:35;;;;;;;;;;;;;;;-1.06;69.51;102561.50;105131;1288;61981;-75
2023/02/28 06:54:21;;;;;;;;;;;;;;;-0.51;69.49;102559.43;105123;1291;74493;-75
2023/02/28 06:57:08;;;;;;;;;;;;;;;0.10;69.55;102559.11;105161;1288;71365;-75
2023/02/28 06:59:54;;;;;;;;;;;;;;;0.59;69.44;102553.77;105162;1290;71335;-75
2023/02/28 07:02:40;;;;;;;;;;;;;;;1.15;69.53;102556.79;105206;1288;61924;-75
2023/02/28 07:05:26;;;;;;;;;;;;;;;1.74;69.57;102557.33;105196;1292;60332;-75
2023/02/28 07:08:13;;;;;;;;;;;;;;;2.38;69.65;102560.48;105175;1290;73624;-75
2023/02/28 07:10:59;;;;;;;;;;;;;;;2.89;69.54;102558.83;105008;1287;67845;-75
2023/02/28 07:13:47;;;;;;;;;;;;;;;3.33;69.55;102561.66;104976;1290;71792;-75
2023/02/28 07:16:33;;;;;;;;;;;;;;;3.76;69.49;102563.04;105175;1289;61888;-75
2023/02/28 07:19:19;;;;;;;;;;;;;;;4.08;69.52;102562.66;105160;1288;60348;-75
2023/02/28 07:22:06;;;;;;;;;;;;;;;4.33;69.67;102561.45;105150;1288;74641;-75
2023/02/28 07:24:52;;;;;;;;;;;;;;;4.54;69.55;102563.19;105033;1288;69545;-75
2023/02/28 07:27:38;;;;;;;;;;;;;;;4.69;69.67;102562.04;105154;1288;72264;-75
2023/02/28 07:30:24;;;;;;;;;;;;;;;4.90;69.77;102562.67;105123;1288;61606;-75
2023/02/28 07:33:11;;;;;;;;;;;;;;;5.19;69.80;102560.02;105136;1288;61896;-76
2023/02/28 07:36:04;;;;;;;;;;;;;;;5.44;69.82;102563.31;105176;1288;75202;-75
2023/02/28 07:38:50;;;;;;;;;;;;;;;5.70;70.00;102563.91;105896;1290;68203;-75
2023/02/28 07:41:39;;;;;;;;;;;;;;;5.95;69.97;102561.88;105944;1291;72831;-75
2023/02/28 07:44:25;;;;;;;;;;;;;;;6.24;70.06;102571.73;105940;1289;60452;-76
2023/02/28 07:47:11;;;;;;;;;;;;;;;6.43;70.05;102570.47;105959;1288;60606;-76
2023/02/28 07:49:57;;;;;;;;;;;;;;;6.60;69.94;102567.45;105990;1288;76376;-76
2023/02/28 07:52:43;;;;;;;;;;;;;;;6.78;69.96;102565.58;105964;1291;67480;-76
2023/02/28 07:55:29;;;;;;;;;;;;;;;6.92;70.05;102563.09;106005;1289;72633;-76
2023/02/28 07:58:15;;;;;;;;;;;;;;;7.08;70.34;102563.72;106012;1288;59816;-76
2023/02/28 08:01:05;;;;;;;;;;;;;;;7.21;70.39;102559.49;105950;1288;60347;-76
2023/02/28 08:03:51;;;;;;;;;;;;;;;7.39;70.56;102559.96;105876;1288;75147;-76
2023/02/28 08:06:37;;;;;;;;;;;;;;;7.60;70.46;102559.88;105966;1288;68320;-76
2023/02/28 08:09:23;;;;;;;;;;;;;;;7.79;70.70;102555.05;105819;1288;205355;-76
2023/02/28 08:12:10;;;;;;;;;;;;;;;7.90;70.53;102553.28;105657;1288;60383;-76
2023/02/28 08:14:56;;;;;;;;;;;;;;;8.10;70.50;102553.27;105008;1288;61829;-76
2023/02/28 08:17:42;;;;;;;;;;;;;;;8.31;70.41;102550.70;105066;1288;76918;-76
2023/02/28 08:20:28;;;;;;;;;;;;;;;8.53;70.18;102555.88;105092;1291;67131;-76
2023/02/28 08:23:15;;;;;;;;;;;;;;;8.60;70.31;102552.09;105071;1288;73187;-76
2023/02/28 08:26:01;;;;;;;;;;;;;;;8.67;70.14;102554.83;105041;1288;60074;-76
2023/02/28 08:28:47;;;;;;;;;;;;;;;8.61;69.93;102551.08;105113;1292;62495;-76
2023/02/28 08:31:35;;;;;;;;;;;;;;;8.48;69.85;102552.31;105139;1292;75035;-76
2023/02/28 08:34:21;;;;;;;;;;;;;;;8.07;70.07;102553.20;105026;1288;67134;-76
2023/02/28 08:37:07;;;;;;;;;;;;;;;7.62;70.25;102556.67;105016;1289;73953;-76
2023/02/28 08:39:53;;;;;;;;;;;;;;;7.17;70.20;102557.98;105005;1288;61880;-76
2023/02/28 08:42:39;;;;;;;;;;;;;;;6.65;70.38;102560.89;105151;1288;60494;-76
2023/02/28 08:45:25;;;;;;;;;;;;;;;6.18;70.38;102560.08;105074;1288;74952;-76
2023/02/28 08:48:11;;;;;;;;;;;;;;;5.75;70.36;102558.41;105164;1292;67958;-76
2023/02/28 08:51:02;;;;;;;;;;;;;;;5.37;70.20;102559.31;105054;1288;72564;-75
2023/02/28 08:53:49;;;;;;;;;;;;;;;5.07;70.28;102565.73;105001;1293;62089;-75
2023/02/28 08:56:36;;;;;;;;;;;;;;;4.82;70.20;102565.42;105148;1290;59427;-75
2023/02/28 08:59:22;;;;;;;;;;;;;;;4.56;70.05;102569.73;104996;1290;74810;-75
2023/02/28 09:02:12;;;;;;;;;;;;;;;4.34;69.90;102570.88;105023;1287;67335;-75
2023/02/28 09:04:58;;;;;;;;;;;;;;;4.05;69.75;102580.80;105039;1288;74042;-75
2023/02/28 09:07:44;;;;;;;;;;;;;;;3.84;69.68;102577.70;105137;1288;61523;-75
2023/02/28 09:10:30;;;;;;;;;;;;;;;3.65;69.67;102575.33;105127;1288;60250;-75
2023/02/28 09:13:16;;;;;;;;;;;;;;;3.48;69.63;102577.32;105081;1288;75197;-75
2023/02/28 09:16:03;;;;;;;;;;;;;;;3.31;69.52;102580.65;105005;1288;68850;-75
2023/02/28 09:18:49;;;;;;;;;;;;;;;3.21;69.44;102579.35;105121;1288;72479;-75
2023/02/28 09:21:36;;;;;;;;;;;;;;;3.13;69.36;102579.34;105129;1288;60460;-75
2023/02/28 09:24:22;;;;;;;;;;;;;;;3.04;69.23;102582.34;105172;1288;59901;-75
2023/02/28 09:27:08;;;;;;;;;;;;;;;2.92;69.01;102584.69;105125;1288;75163;-75
2023/02/28 09:29:54;;;;;;;;;;;;;;;2.85;69.10;102590.64;105114;1288;68729;-75
2023/02/28 09:32:40;;;;;;;;;;;;;;;2.79;69.04;102589.33;105132;1290;71066;-75
2023/02/28 09:35:26;;;;;;;;;;;;;;;2.71;68.98;102586.05;105088;1288;62026;-75
2023/02/28 09:38:12;;;;;;;;;;;;;;;2.62;68.92;102591.28;105203;1288;62068;-75
2023/02/28 09:41:00;;;;;;;;;;;;;;;2.58;68.92;102590.76;105224;1291;75523;-75
2023/02/28 09:43:52;;;;;;;;;;;;;;;2.55;68.90;102594.00;105110;1288;68747;-75
2023/02/28 09:46:44;;;;;;;;;;;;;;;2.52;68.94;102592.50;105189;1290;71208;-75
2023/02/28 09:49:37;;;;;;;;;;;;;;;2.52;68.90;102599.82;105114;1288;61927;-75
2023/02/28 09:52:27;;;;;;;;;;;;;;;2.50;68.73;102597.34;105057;1288;62040;-75
2023/02/28 09:55:36;;;;;;;;;;;;;;;2.49;68.86;102594.22;105187;1288;74776;-75
2023/02/28 09:58:31;;;;;;;;;;;;;;;2.52;68.82;102590.48;104522;1295;67307;-75
2023/02/28 10:01:36;;;;;;;;;;;;;;;2.51;68.74;102586.51;104467;1295;71705;-75
2023/02/28 10:04:40;;;;;;;;;;;;;;;2.50;68.69;102586.80;104587;1295;61983;-75
2023/02/28 10:07:43;;;;;;;;;;;;;;;2.52;68.50;102583.48;104534;1295;61985;-75
2023/02/28 10:10:32;;;;;;;;;;;;;;;2.51;68.32;102587.52;104545;1295;75326;-75
2023/02/28 10:13:27;;;;;;;;;;;;;;;2.46;68.10;102584.88;104613;1296;69999;-75
2023/02/28 10:16:39;;;;;;;;;;;;;;;2.46;68.22;102577.74;104529;1296;73071;-75
2023/02/28 10:19:32;;;;;;;;;;;;;;;2.46;68.10;102579.42;104018;1302;60565;-75
2023/02/28 10:22:23;;;;;;;;;;;;;;;2.46;68.12;102574.48;104093;1302;62002;-75
2023/02/28 10:25:18;;;;;;;;;;;;;;;2.45;67.78;102577.19;103951;1305;75402;-75
2023/02/28 10:28:27;;;;;;;;;;;;;;;2.46;67.72;102577.06;104035;1302;67311;-75
2023/02/28 10:31:16;;;;;;;;;;;;;;;2.48;67.75;102573.72;103609;1305;70596;-75
2023/02/28 10:34:04;;;;;;;;;;;;;;;2.48;67.68;102572.02;103470;1308;61992;-75
2023/02/28 10:36:50;;;;;;;;;;;;;;;2.47;67.73;102570.98;104017;1302;60626;-75
2023/02/28 10:39:43;;;;;;;;;;;;;;;2.49;67.72;102566.48;103933;1302;74452;-75
2023/02/28 10:42:30;;;;;;;;;;;;;;;2.51;67.54;102565.05;103970;1302;67669;-75
2023/02/28 10:45:16;;;;;;;;;;;;;;;2.54;67.64;102563.16;104015;1302;71635;-75
2023/02/28 10:48:22;;;;;;;;;;;;;;;2.55;67.52;102561.67;103953;1302;61799;-75
2023/02/28 10:51:10;;;;;;;;;;;;;;;2.56;67.48;102555.21;103971;1307;60420;-75
2023/02/28 10:53:57;;;;;;;;;;;;;;;2.56;67.65;102547.73;104046;1302;74905;-75
2023/02/28 10:56:44;;;;;;;;;;;;;;;2.60;67.80;102540.10;104280;1297;67224;-75
2023/02/28 10:59:31;;;;;;;;;;;;;;;2.67;67.76;102531.21;104385;1296;70663;-75
2023/02/28 11:02:52;;;;;;;;;;;;;;;2.73;67.68;102530.61;104497;1296;64066;-75
2023/02/28 11:05:41;;;;;;;;;;;;;;;2.77;67.62;102530.48;104027;1302;62107;-75
2023/02/28 11:08:27;;;;;;;;;;;;;;;2.81;67.67;102530.66;104258;1297;73910;-75
2023/02/28 11:11:13;;;;;;;;;;;;;;;2.86;67.54;102536.02;104323;1296;68051;-75
2023/02/28 11:14:05;;;;;;;;;;;;;;;2.88;67.36;102535.42;104126;1299;71258;-75
2023/02/28 11:16:52;;;;;;;;;;;;;;;2.92;67.55;102535.11;104512;1297;60089;-75
2023/02/28 11:19:40;;;;;;;;;;;;;;;2.96;67.53;102535.80;104406;1297;62273;-76
2023/02/28 11:22:30;;;;;;;;;;;;;;;2.96;67.32;102536.33;104505;1296;74524;-77
2023/02/28 11:25:28;;;;;;;;;;;;;;;2.98;67.25;102532.00;104402;1296;67456;-77
2023/02/28 11:28:28;;;;;;;;;;;;;;;3.04;67.33;102533.25;104441;1296;74007;-77
2023/02/28 11:31:19;;;;;;;;;;;;;;;3.04;67.17;102530.73;104429;1299;61433;-77
2023/02/28 11:34:22;;;;;;;;;;;;;;;3.05;67.08;102531.93;104514;1300;62271;-76
2023/02/28 11:37:17;;;;;;;;;;;;;;;3.03;67.19;102524.20;104429;1299;74245;-76
2023/02/28 11:40:14;;;;;;;;;;;;;;;3.05;67.20;102522.42;104954;1290;70784;-76
2023/02/28 11:43:29;;;;;;;;;;;;;;;3.13;67.29;102520.02;105123;1288;73465;-76
2023/02/28 11:46:30;;;;;;;;;;;;;;;3.15;67.32;102514.68;104504;1296;62806;-77
2023/02/28 11:49:31;;;;;;;;;;;;;;;3.16;66.84;102512.16;104463;1299;62753;-77
2023/02/28 11:52:24;;;;;;;;;;;;;;;3.15;67.13;102508.19;104520;1296;80553;-77
2023/02/28 11:55:19;;;;;;;;;;;;;;;3.21;67.10;102506.23;104576;1297;69322;-77
2023/02/28 11:58:05;;;;;;;;;;;;;;;3.22;66.83;102506.14;104512;1296;73070;-77
2023/02/28 12:01:02;;;;;;;;;;;;;;;3.23;66.97;102504.80;104489;1295;60743;-76
2023/02/28 12:04:08;;;;;;;;;;;;;;;3.23;66.84;102503.80;104496;1296;61866;-76
2023/02/28 12:07:00;;;;;;;;;;;;;;;3.23;66.88;102498.81;103991;1303;75390;-77
2023/02/28 12:09:53;;;;;;;;;;;;;;;3.23;66.95;102495.60;104036;1302;67375;-76
2023/02/28 12:12:58;;;;;;;;;;;;;;;3.26;66.90;102497.25;103960;1302;71343;-76
2023/02/28 12:16:02;;;;;;;;;;;;;;;3.30;66.66;102490.27;103991;1302;62164;-77
2023/02/28 12:18:48;;;;;;;;;;;;;;;3.27;66.42;102492.55;104072;1302;62405;-77
2023/02/28 12:21:46;;;;;;;;;;;;;;;3.25;66.50;102490.90;103900;1302;75890;-77
2023/02/28 12:24:50;;;;;;;;;;;;;;;3.25;66.60;102490.55;104356;1296;67440;-77
2023/02/28 12:27:38;;;;;;;;;;;;;;;3.28;66.09;102486.95;104416;1296;71400;-77
2023/02/28 12:30:26;;;;;;;;;;;;;;;3.26;66.38;102487.57;104458;1301;62101;-77
2023/02/28 12:33:14;;;;;;;;;;;;;;;3.26;66.54;102490.09;104444;1296;59843;-77
2023/02/28 12:36:04;;;;;;;;;;;;;;;3.28;66.45;102486.11;104464;1297;73941;-77
2023/02/28 12:38:53;;;;;;;;;;;;;;;3.29;66.35;102486.15;104425;1296;67303;-77
2023/02/28 12:41:47;;;;;;;;;;;;;;;3.28;66.38;102483.05;104495;1296;72533;-77
2023/02/28 12:44:33;;;;;;;;;;;;;;;3.28;66.39;102477.56;104773;1293;61929;-77
2023/02/28 12:47:19;;;;;;;;;;;;;;;3.29;66.36;102475.75;105013;1290;62862;-77
2023/02/28 12:50:06;;;;;;;;;;;;;;;3.31;66.33;102476.55;104923;1289;74339;-77
2023/02/28 12:52:52;;;;;;;;;;;;;;;3.34;66.13;102468.13;105085;1290;67318;-77
2023/02/28 12:56:01;;;;;;;;;;;;;;;3.37;66.23;102461.77;105056;1290;71288;-77
2023/02/28 12:59:01;;;;;;;;;;;;;;;3.40;66.22;102461.55;105019;1289;61894;-77
2023/02/28 13:02:13;;;;;;;;;;;;;;;3.41;66.23;102455.30;105095;1291;62083;-75
2023/02/28 13:05:20;;;;;;;;;;;;;;;3.43;66.23;102453.16;104357;1296;75712;-77
2023/02/28 13:08:27;;;;;;;;;;;;;;;3.42;66.14;102445.30;103788;1305;68004;-76
2023/02/28 13:11:24;;;;;;;;;;;;;;;3.46;66.20;102452.29;103159;1311;72245;-76
2023/02/28 13:14:39;;;;;;;;;;;;;;;3.48;66.17;102451.52;103253;1311;60768;-76
2023/02/28 13:17:28;;;;;;;;;;;;;;;3.51;66.07;102452.48;102710;1314;60101;-77
2023/02/28 13:20:23;;;;;;;;;;;;;;;3.53;66.01;102450.70;102681;1317;73410;-76
2023/02/28 13:23:29;;;;;;;;;;;;;;;3.55;65.96;102448.73;102808;1317;67687;-76
2023/02/28 13:26:15;;;;;;;;;;;;;;;3.56;66.06;102445.89;102789;1314;71704;-76
2023/02/28 13:29:21;;;;;;;;;;;;;;;3.60;65.84;102443.50;102633;1319;62124;-76
2023/02/28 13:32:07;;;;;;;;;;;;;;;3.59;65.87;102436.81;102644;1314;62034;-76
2023/02/28 13:34:53;;;;;;;;;;;;;;;3.59;65.92;102441.56;102671;1316;74207;-76
2023/02/28 13:37:43;;;;;;;;;;;;;;;3.57;65.75;102438.41;102753;1317;67743;-76
2023/02/28 13:40:36;;;;;;;;;;;;;;;3.56;65.80;102436.83;102817;1314;71383;-76
2023/02/28 13:43:42;;;;;;;;;;;;;;;3.57;65.87;102437.21;103305;1308;62489;-76
2023/02/28 13:46:29;;;;;;;;;;;;;;;3.59;65.84;102433.72;103879;1305;62057;-76
2023/02/28 13:49:44;;;;;;;;;;;;;;;3.59;65.84;102426.73;104274;1298;74798;-77
2023/02/28 13:52:33;;;;;;;;;;;;;;;3.58;65.67;102424.98;103942;1302;70359;-76
2023/02/28 13:55:25;;;;;;;;;;;;;;;3.55;65.72;102415.98;104444;1297;71737;-76
2023/02/28 13:58:17;;;;;;;;;;;;;;;3.53;65.77;102415.09;104471;1297;62123;-77
2023/02/28 14:01:08;;;;;;;;;;;;;;;3.54;65.78;102417.31;104450;1296;61358;-76
2023/02/28 14:04:06;;;;;;;;;;;;;;;3.52;65.69;102410.91;104392;1296;74156;-76
2023/02/28 14:06:53;;;;;;;;;;;;;;;3.48;65.70;102408.55;104415;1299;67141;-77
2023/02/28 14:09:47;;;;;;;;;;;;;;;3.46;65.70;102401.46;104406;1299;72058;-76
2023/02/28 14:12:52;;;;;;;;;;;;;;;3.47;65.70;102398.77;104289;1296;61963;-76
2023/02/28 14:15:58;;;;;;;;;;;;;;;3.46;65.59;102396.70;104309;1296;62001;-76
2023/02/28 14:18:51;;;;;;;;;;;;;;;3.46;65.52;102396.33;104043;1302;75960;-77
2023/02/28 14:21:39;;;;;;;;;;;;;;;3.44;65.61;102393.73;104063;1302;68629;-76
2023/02/28 14:24:54;;;;;;;;;;;;;;;3.42;65.36;102388.84;104031;1302;72637;-75
2023/02/28 14:27:46;;;;;;;;;;;;;;;3.41;65.36;102382.19;103295;1311;60246;-76